createdAt,value
2023-04-09T00:00:44.396Z,17.25
2023-04-09T00:03:11.537Z,15.40
2023-04-09T00:05:42.395Z,17.60
2023-04-09T00:08:09.364Z,19.40
2023-04-09T00:10:36.337Z,15.25
2023-04-09T00:13:03.372Z,17.33
2023-04-09T00:15:31.874Z,17.27
2023-04-09T00:17:59.656Z,17.15
2023-04-09T00:20:26.871Z,16.25
2023-04-09T00:22:54.223Z,17.17
2023-04-09T00:25:21.256Z,23.83
2023-04-09T00:27:48.234Z,59.03
2023-04-09T00:30:16.026Z,142.48
2023-04-09T00:32:43.703Z,46.08
2023-04-09T00:35:11.150Z,27.85
2023-04-09T00:37:38.180Z,18.65
2023-04-09T00:40:06.230Z,16.30
2023-04-09T00:42:34.720Z,13.90
2023-04-09T00:45:02.081Z,14.52
2023-04-09T00:47:30.655Z,14.63
2023-04-09T00:49:58.168Z,17.25
2023-04-09T00:52:25.819Z,14.70
2023-04-09T00:54:53.667Z,15.45
2023-04-09T00:57:20.719Z,14.68
2023-04-09T00:59:47.698Z,15.70
2023-04-09T01:02:14.873Z,14.80
2023-04-09T01:04:43.109Z,15.27
2023-04-09T01:07:25.345Z,14.30
2023-04-09T01:10:09.845Z,13.45
2023-04-09T01:13:09.110Z,16.80
2023-04-09T01:15:44.274Z,12.50
2023-04-09T01:18:31.055Z,13.25
2023-04-09T01:21:05.118Z,16.10
2023-04-09T01:23:54.973Z,13.77
2023-04-09T01:26:41.349Z,12.27
2023-04-09T01:29:09.202Z,15.98
2023-04-09T01:31:38.473Z,14.85
2023-04-09T01:34:08.913Z,13.18
2023-04-09T01:36:38.005Z,15.65
2023-04-09T01:39:06.302Z,17.80
2023-04-09T01:41:35.580Z,14.18
2023-04-09T01:44:05.059Z,14.98
2023-04-09T01:46:33.477Z,15.40
2023-04-09T01:49:01.478Z,17.20
2023-04-09T01:51:29.816Z,14.68
2023-04-09T01:53:58.180Z,16.30
2023-04-09T01:56:25.183Z,16.10
2023-04-09T01:58:52.799Z,20.15
2023-04-09T02:01:36.142Z,19.88
2023-04-09T02:04:07.781Z,14.98
2023-04-09T02:06:52.994Z,19.10
2023-04-09T02:09:21.651Z,15.38
2023-04-09T02:11:58.534Z,16.38
2023-04-09T02:14:27.275Z,15.57
2023-04-09T02:16:54.441Z,16.77
2023-04-09T02:19:21.517Z,16.88
2023-04-09T02:21:48.573Z,19.42
2023-04-09T02:24:15.584Z,17.85
2023-04-09T02:26:42.565Z,17.98
2023-04-09T02:29:09.618Z,18.40
2023-04-09T02:31:36.755Z,16.98
2023-04-09T02:34:03.790Z,19.88
2023-04-09T02:36:31.192Z,19.13
2023-04-09T02:38:58.253Z,20.42
2023-04-09T02:41:26.018Z,20.73
2023-04-09T02:43:53.062Z,20.05
2023-04-09T02:46:20.172Z,21.60
2023-04-09T02:48:48.099Z,17.30
2023-04-09T02:51:15.275Z,19.00
2023-04-09T02:53:42.268Z,18.05
2023-04-09T02:56:09.294Z,21.30
2023-04-09T02:58:36.320Z,20.70
2023-04-09T03:01:03.406Z,19.98
2023-04-09T03:03:31.193Z,19.95
2023-04-09T03:05:58.532Z,21.02
2023-04-09T03:08:25.709Z,19.15
2023-04-09T03:10:52.823Z,22.65
2023-04-09T03:13:19.798Z,21.63
2023-04-09T03:15:51.498Z,18.90
2023-04-09T03:18:18.576Z,21.33
2023-04-09T03:20:45.720Z,20.73
2023-04-09T03:23:14.568Z,20.20
2023-04-09T03:25:47.114Z,18.45
2023-04-09T03:30:47.519Z,25.50
2023-04-09T03:33:15.471Z,21.92
2023-04-09T03:35:50.974Z,22.77
2023-04-09T03:38:24.279Z,22.95
2023-04-09T03:40:51.707Z,21.00
2023-04-09T03:43:18.711Z,20.45
2023-04-09T03:45:50.682Z,21.67
2023-04-09T03:48:26.357Z,20.95
2023-04-09T03:50:53.978Z,20.35
2023-04-09T03:53:29.521Z,21.55
2023-04-09T03:56:03.088Z,24.92
2023-04-09T03:58:31.238Z,22.60
2023-04-09T04:00:59.192Z,21.02
2023-04-09T04:03:40.564Z,22.45
2023-04-09T04:06:27.961Z,20.88
2023-04-09T04:09:03.620Z,20.52
2023-04-09T04:11:43.564Z,18.42
2023-04-09T04:14:11.041Z,19.70
2023-04-09T04:16:42.972Z,15.30
2023-04-09T04:19:12.063Z,23.08
2023-04-09T04:21:44.789Z,24.40
2023-04-09T04:24:11.810Z,21.73
2023-04-09T04:26:41.424Z,20.52
2023-04-09T04:29:09.808Z,20.33
2023-04-09T04:31:55.878Z,20.13
2023-04-09T04:34:25.693Z,18.70
2023-04-09T04:37:18.632Z,21.25
2023-04-09T04:39:45.741Z,21.17
2023-04-09T04:42:15.789Z,20.42
2023-04-09T04:44:44.018Z,21.35
2023-04-09T04:47:29.509Z,19.25
2023-04-09T04:49:58.650Z,19.20
2023-04-09T04:52:26.158Z,21.23
2023-04-09T04:54:54.324Z,18.50
2023-04-09T04:57:23.662Z,20.23
2023-04-09T04:59:50.940Z,19.73
2023-04-09T05:02:18.884Z,22.58
2023-04-09T05:05:06.779Z,21.27
2023-04-09T05:07:39.445Z,20.02
2023-04-09T05:10:07.380Z,19.15
2023-04-09T05:12:38.491Z,23.48
2023-04-09T05:15:07.045Z,22.20
2023-04-09T05:17:34.067Z,21.80
2023-04-09T05:20:01.311Z,20.25
2023-04-09T05:22:44.233Z,19.48
2023-04-09T05:25:11.403Z,21.00
2023-04-09T05:30:10.929Z,18.95
2023-04-09T05:32:39.290Z,19.33
2023-04-09T05:35:07.031Z,21.40
2023-04-09T05:37:39.318Z,22.75
2023-04-09T05:40:07.402Z,22.63
2023-04-09T05:42:34.702Z,23.10
2023-04-09T05:45:06.187Z,21.63
2023-04-09T05:47:33.571Z,20.88
2023-04-09T05:50:12.286Z,18.08
2023-04-09T05:52:39.360Z,21.58
2023-04-09T05:55:07.502Z,21.30
2023-04-09T05:57:45.523Z,20.55
2023-04-09T06:00:13.666Z,23.65
2023-04-09T06:02:48.456Z,23.05
2023-04-09T06:05:15.626Z,22.02
2023-04-09T06:07:42.620Z,20.95
2023-04-09T06:10:09.905Z,20.77
2023-04-09T06:12:36.953Z,20.48
2023-04-09T06:15:07.630Z,21.35
2023-04-09T06:17:34.637Z,22.20
2023-04-09T06:20:01.706Z,21.45
2023-04-09T06:22:28.734Z,22.08
2023-04-09T06:24:55.913Z,24.52
2023-04-09T06:27:22.956Z,21.95
2023-04-09T06:29:49.931Z,22.13
2023-04-09T06:32:17.201Z,23.40
2023-04-09T06:34:44.437Z,26.20
2023-04-09T06:37:11.578Z,19.50
2023-04-09T06:39:40.407Z,22.05
2023-04-09T06:42:09.502Z,21.05
2023-04-09T06:44:55.462Z,21.45
2023-04-09T06:47:22.419Z,20.38
2023-04-09T06:49:49.476Z,19.90
2023-04-09T06:52:16.853Z,20.33
2023-04-09T06:54:43.796Z,20.10
2023-04-09T06:57:14.062Z,20.00
2023-04-09T06:59:41.322Z,20.75
2023-04-09T07:02:09.190Z,19.63
2023-04-09T07:04:37.605Z,18.90
2023-04-09T07:07:05.230Z,19.83
2023-04-09T07:09:32.367Z,19.42
2023-04-09T07:11:59.422Z,18.73
2023-04-09T07:14:26.385Z,20.83
2023-04-09T07:16:53.322Z,18.38
2023-04-09T07:19:20.372Z,21.00
2023-04-09T07:21:47.352Z,18.98
2023-04-09T07:24:14.357Z,27.88
2023-04-09T07:26:41.593Z,31.10
2023-04-09T07:29:08.781Z,18.15
2023-04-09T07:31:36.285Z,17.90
2023-04-09T07:34:03.335Z,17.95
2023-04-09T07:36:31.892Z,19.55
2023-04-09T07:38:59.006Z,19.20
2023-04-09T07:41:26.133Z,16.50
2023-04-09T07:43:53.110Z,15.77
2023-04-09T07:46:22.015Z,15.48
2023-04-09T07:48:50.416Z,17.80
2023-04-09T07:51:18.241Z,13.63
2023-04-09T07:53:45.256Z,16.67
2023-04-09T07:56:12.425Z,13.48
2023-04-09T07:58:39.493Z,14.13
2023-04-09T08:01:06.573Z,14.52
2023-04-09T08:03:33.786Z,15.90
2023-04-09T08:06:01.442Z,15.40
2023-04-09T08:08:28.553Z,15.63
2023-04-09T08:10:55.723Z,16.38
2023-04-09T08:13:25.474Z,17.13
2023-04-09T08:18:19.590Z,14.18
2023-04-09T08:20:46.831Z,16.42
2023-04-09T08:23:14.025Z,15.23
2023-04-09T08:25:41.124Z,15.50
2023-04-09T08:28:08.483Z,15.27
2023-04-09T08:30:35.717Z,13.50
2023-04-09T08:33:03.059Z,12.45
2023-04-09T08:35:33.537Z,12.45
2023-04-09T08:38:00.511Z,13.18
2023-04-09T08:40:27.591Z,13.20
2023-04-09T08:42:57.037Z,12.23
2023-04-09T08:45:24.438Z,13.15
2023-04-09T08:47:52.434Z,13.93
2023-04-09T08:50:20.259Z,12.02
2023-04-09T08:52:48.666Z,9.70
2023-04-09T08:55:15.866Z,13.80
2023-04-09T08:57:43.374Z,12.02
2023-04-09T09:00:10.963Z,11.70
2023-04-09T09:02:39.491Z,10.55
2023-04-09T09:05:07.171Z,10.10
2023-04-09T09:07:34.436Z,10.30
2023-04-09T09:10:05.192Z,10.63
2023-04-09T09:12:32.123Z,11.00
2023-04-09T09:14:59.253Z,10.48
2023-04-09T09:17:26.777Z,10.23
2023-04-09T09:19:54.082Z,9.70
2023-04-09T09:22:21.694Z,10.40
2023-04-09T09:24:50.395Z,9.95
2023-04-09T09:27:39.666Z,9.38
2023-04-09T09:30:08.857Z,10.40
2023-04-09T09:32:36.389Z,10.18
2023-04-09T09:35:07.508Z,9.57
2023-04-09T09:37:34.709Z,8.35
2023-04-09T09:40:02.093Z,8.57
2023-04-09T09:42:29.065Z,8.57
2023-04-09T09:44:56.628Z,9.07
2023-04-09T09:47:25.357Z,9.85
2023-04-09T09:49:52.746Z,8.38
2023-04-09T09:52:27.193Z,9.27
2023-04-09T09:54:56.001Z,7.85
2023-04-09T09:57:25.360Z,7.55
2023-04-09T10:00:06.463Z,8.55
2023-04-09T10:02:54.080Z,7.25
2023-04-09T10:05:25.155Z,10.18
2023-04-09T10:07:57.446Z,7.82
2023-04-09T10:10:25.892Z,7.70
2023-04-09T10:12:53.056Z,6.60
2023-04-09T10:15:20.596Z,7.18
2023-04-09T10:17:48.159Z,8.30
2023-04-09T10:20:29.168Z,7.70
2023-04-09T10:22:57.746Z,7.90
2023-04-09T10:25:24.844Z,6.95
2023-04-09T10:28:02.425Z,6.10
2023-04-09T10:30:33.998Z,6.72
2023-04-09T10:33:12.186Z,6.70
2023-04-09T10:35:39.417Z,6.97
2023-04-09T10:38:10.779Z,7.43
2023-04-09T10:40:56.058Z,7.93
2023-04-09T10:43:23.810Z,7.88
2023-04-09T10:45:53.712Z,6.72
2023-04-09T10:48:22.151Z,7.93
2023-04-09T10:50:54.138Z,7.57
2023-04-09T10:53:28.010Z,8.30
2023-04-09T10:55:56.708Z,10.20
2023-04-09T10:58:23.696Z,9.10
2023-04-09T11:00:51.622Z,7.93
2023-04-09T11:03:30.708Z,8.27
2023-04-09T11:06:03.252Z,8.90
2023-04-09T11:08:32.103Z,7.55
2023-04-09T11:11:01.574Z,7.37
2023-04-09T11:15:57.396Z,7.38
2023-04-09T11:18:26.471Z,7.45
2023-04-09T11:21:00.995Z,6.50
2023-04-09T11:23:28.432Z,11.13
2023-04-09T11:25:56.524Z,9.35
2023-04-09T11:28:24.505Z,7.93
2023-04-09T11:30:52.465Z,9.35
2023-04-09T11:33:20.453Z,9.35
2023-04-09T11:35:48.663Z,8.88
2023-04-09T11:38:16.059Z,8.75
2023-04-09T11:40:49.061Z,8.48
2023-04-09T11:43:16.971Z,9.20
2023-04-09T11:45:48.833Z,8.98
2023-04-09T11:48:23.390Z,10.02
2023-04-09T11:50:51.040Z,9.75
2023-04-09T11:53:45.875Z,8.52
2023-04-09T11:56:13.286Z,9.38
2023-04-09T11:58:47.421Z,10.98
2023-04-09T12:01:15.701Z,8.73
2023-04-09T12:03:43.017Z,7.93
2023-04-09T12:06:10.124Z,8.82
2023-04-09T12:08:37.667Z,9.68
2023-04-09T12:11:16.268Z,8.90
2023-04-09T12:13:44.806Z,8.82
2023-04-09T12:16:13.675Z,8.38
2023-04-09T12:18:41.141Z,8.80
2023-04-09T12:21:08.271Z,9.15
2023-04-09T12:23:35.359Z,8.60
2023-04-09T12:26:02.568Z,11.02
2023-04-09T12:28:29.724Z,8.82
2023-04-09T12:30:58.410Z,10.82
2023-04-09T12:33:25.442Z,8.30
2023-04-09T12:35:52.489Z,8.63
2023-04-09T12:38:19.429Z,9.15
2023-04-09T12:40:47.000Z,10.48
2023-04-09T12:43:53.610Z,10.20
2023-04-09T12:46:20.766Z,9.02
2023-04-09T12:48:47.862Z,10.68
2023-04-09T12:51:42.080Z,9.30
2023-04-09T12:54:08.975Z,8.75
2023-04-09T12:56:36.007Z,10.68
2023-04-09T12:59:04.103Z,10.45
2023-04-09T13:01:31.235Z,10.55
2023-04-09T13:03:58.781Z,11.48
2023-04-09T13:06:26.231Z,10.80
2023-04-09T13:08:59.133Z,12.05
2023-04-09T13:11:26.490Z,11.30
2023-04-09T13:13:53.995Z,12.13
2023-04-09T13:16:21.159Z,11.25
2023-04-09T13:18:48.272Z,10.10
2023-04-09T13:21:18.826Z,11.95
2023-04-09T13:23:45.794Z,10.65
2023-04-09T13:26:12.821Z,10.55
2023-04-09T13:28:39.748Z,10.88
2023-04-09T13:31:06.843Z,10.80
2023-04-09T13:33:34.189Z,10.38
2023-04-09T13:36:01.559Z,10.93
2023-04-09T13:38:28.657Z,10.25
2023-04-09T13:41:28.350Z,11.93
2023-04-09T13:43:55.829Z,10.18
2023-04-09T13:47:18.581Z,11.85
2023-04-09T13:50:47.758Z,10.23
2023-04-09T13:53:14.875Z,9.07
2023-04-09T13:55:41.854Z,10.25
2023-04-09T13:58:08.790Z,9.20
2023-04-09T14:00:39.826Z,9.23
2023-04-09T14:03:07.012Z,10.05
2023-04-09T14:05:34.041Z,12.00
2023-04-09T14:08:01.259Z,10.02
2023-04-09T14:10:28.177Z,9.20
2023-04-09T14:12:59.400Z,9.50
2023-04-09T14:15:26.850Z,8.50
2023-04-09T14:17:53.916Z,8.90
2023-04-09T14:20:21.470Z,9.68
2023-04-09T14:22:53.614Z,13.65
2023-04-09T14:25:24.846Z,10.35
2023-04-09T14:27:52.286Z,20.60
2023-04-09T14:30:19.327Z,10.27
2023-04-09T14:32:46.516Z,12.20
2023-04-09T14:35:13.581Z,10.15
2023-04-09T14:37:41.120Z,11.48
2023-04-09T14:40:09.264Z,12.07
2023-04-09T14:42:37.350Z,10.43
2023-04-09T14:45:04.636Z,10.90
2023-04-09T14:47:31.724Z,8.73
2023-04-09T14:49:58.664Z,8.73
2023-04-09T14:52:26.043Z,9.93
2023-04-09T14:54:53.053Z,8.65
2023-04-09T14:57:20.040Z,9.13
2023-04-09T14:59:47.049Z,9.90
2023-04-09T15:02:14.221Z,9.07
2023-04-09T15:04:41.523Z,9.70
2023-04-09T15:07:08.533Z,8.95
2023-04-09T15:09:35.824Z,10.18
2023-04-09T15:12:03.434Z,8.38
2023-04-09T15:14:31.374Z,8.85
2023-04-09T15:16:58.377Z,12.63
2023-04-09T15:19:25.415Z,9.80
2023-04-09T15:21:52.579Z,10.32
2023-04-09T15:24:19.585Z,9.77
2023-04-09T15:26:46.616Z,10.05
2023-04-09T15:29:13.634Z,10.18
2023-04-09T15:31:41.607Z,11.02
2023-04-09T15:34:08.798Z,9.60
2023-04-09T15:36:36.002Z,10.07
2023-04-09T15:39:04.603Z,9.32
2023-04-09T15:41:32.368Z,9.38
2023-04-09T15:43:59.482Z,8.18
2023-04-09T15:46:26.356Z,9.85
2023-04-09T15:48:53.652Z,8.18
2023-04-09T15:51:21.156Z,7.90
2023-04-09T15:53:48.165Z,9.18
2023-04-09T15:56:17.829Z,9.65
2023-04-09T15:58:44.830Z,8.80
2023-04-09T16:01:38.195Z,8.95
2023-04-09T16:04:05.473Z,9.15
2023-04-09T16:06:32.702Z,8.82
2023-04-09T16:08:59.723Z,8.23
2023-04-09T16:12:02.930Z,9.60
2023-04-09T16:14:30.245Z,9.60
2023-04-09T16:16:57.178Z,10.07
2023-04-09T16:19:25.337Z,10.57
2023-04-09T16:21:53.326Z,10.27
2023-04-09T16:24:58.460Z,11.15
2023-04-09T16:27:25.495Z,11.95
2023-04-09T16:29:52.540Z,10.18
2023-04-09T16:32:19.455Z,12.88
2023-04-09T16:34:47.459Z,12.00
2023-04-09T16:37:14.536Z,12.27
2023-04-09T16:39:42.080Z,10.43
2023-04-09T16:42:09.628Z,11.05
2023-04-09T16:44:36.768Z,10.57
2023-04-09T16:47:05.384Z,10.38
2023-04-09T16:49:32.385Z,9.25
2023-04-09T16:51:59.435Z,9.88
2023-04-09T16:54:26.587Z,12.90
2023-04-09T16:56:53.654Z,10.23
2023-04-09T16:59:27.771Z,13.38
2023-04-09T17:01:54.825Z,10.07
2023-04-09T17:04:22.003Z,9.25
2023-04-09T17:06:48.988Z,11.00
2023-04-09T17:09:16.614Z,14.32
2023-04-09T17:11:44.668Z,15.75
2023-04-09T17:14:11.680Z,12.35
2023-04-09T17:16:38.717Z,10.82
2023-04-09T17:19:05.869Z,10.80
2023-04-09T17:21:32.886Z,10.52
2023-04-09T17:24:01.917Z,10.63
2023-04-09T17:26:29.454Z,12.95
2023-04-09T17:28:56.364Z,11.43
2023-04-09T17:31:24.480Z,12.75
2023-04-09T17:33:52.389Z,11.95
2023-04-09T17:36:21.260Z,11.48
2023-04-09T17:38:50.126Z,13.60
2023-04-09T17:41:17.119Z,11.73
2023-04-09T17:43:44.018Z,12.07
2023-04-09T17:46:36.848Z,12.10
2023-04-09T17:49:03.974Z,11.73
2023-04-09T17:51:30.865Z,13.75
2023-04-09T17:53:57.841Z,12.48
2023-04-09T17:56:25.193Z,12.52
2023-04-09T17:58:52.269Z,13.77
2023-04-09T18:01:19.482Z,11.48
2023-04-09T18:03:47.082Z,12.15
2023-04-09T18:06:15.676Z,12.75
2023-04-09T18:08:43.454Z,11.27
2023-04-09T18:11:13.273Z,11.50
2023-04-09T18:13:40.899Z,10.43
2023-04-09T18:16:12.309Z,12.80
2023-04-09T18:18:39.617Z,14.07
2023-04-09T18:21:06.926Z,14.38
2023-04-09T18:23:33.939Z,13.13
2023-04-09T18:26:00.868Z,13.00
2023-04-09T18:28:28.148Z,11.02
2023-04-09T18:30:55.137Z,10.80
2023-04-09T18:33:23.105Z,11.60
2023-04-09T18:35:50.052Z,8.60
2023-04-09T18:38:17.881Z,10.70
2023-04-09T18:40:45.038Z,10.23
2023-04-09T18:43:12.570Z,12.60
2023-04-09T18:45:39.799Z,10.70
2023-04-09T18:48:08.188Z,12.30
2023-04-09T18:50:35.794Z,11.18
2023-04-09T18:53:03.760Z,11.40
2023-04-09T18:55:31.941Z,12.48
2023-04-09T18:57:58.901Z,11.98
2023-04-09T19:00:25.968Z,14.32
2023-04-09T19:02:53.806Z,12.73
2023-04-09T19:05:21.058Z,13.60
2023-04-09T19:07:48.113Z,15.95
2023-04-09T19:11:06.340Z,14.73
2023-04-09T19:13:33.773Z,12.35
2023-04-09T19:16:00.873Z,12.95
2023-04-09T19:18:27.858Z,12.20
2023-04-09T19:20:54.922Z,13.82
2023-04-09T19:23:21.908Z,12.65
2023-04-09T19:25:55.861Z,14.15
2023-04-09T19:28:23.325Z,14.75
2023-04-09T19:30:52.584Z,13.73
2023-04-09T19:33:24.663Z,15.93
2023-04-09T19:35:55.483Z,14.25
2023-04-09T19:38:22.885Z,16.20
2023-04-09T19:40:49.966Z,12.75
2023-04-09T19:43:17.026Z,12.65
2023-04-09T19:45:44.483Z,11.20
2023-04-09T19:48:12.700Z,11.88
2023-04-09T19:50:46.709Z,11.88
2023-04-09T19:53:13.705Z,10.82
2023-04-09T19:55:41.771Z,12.50
2023-04-09T19:58:08.790Z,12.95
2023-04-09T20:00:36.053Z,11.38
2023-04-09T20:03:03.519Z,13.93
2023-04-09T20:05:30.668Z,15.77
2023-04-09T20:07:57.689Z,14.45
2023-04-09T20:10:24.780Z,16.40
2023-04-09T20:12:52.063Z,15.82
2023-04-09T20:15:49.991Z,14.93
2023-04-09T20:18:17.002Z,13.48
2023-04-09T20:20:44.054Z,14.73
2023-04-09T20:23:11.025Z,16.98
2023-04-09T20:25:38.201Z,12.77
2023-04-09T20:28:05.252Z,16.08
2023-04-09T20:30:32.627Z,14.32
2023-04-09T20:32:59.805Z,14.10
2023-04-09T20:35:27.452Z,15.05
2023-04-09T20:37:55.318Z,15.20
2023-04-09T20:40:22.635Z,15.50
2023-04-09T20:42:49.789Z,15.93
2023-04-09T20:45:16.980Z,16.92
2023-04-09T20:47:44.069Z,15.95
2023-04-09T20:50:11.445Z,16.52
2023-04-09T20:52:38.838Z,17.52
2023-04-09T20:55:06.551Z,16.20
2023-04-09T20:57:33.872Z,16.73
2023-04-09T21:00:02.136Z,16.42
2023-04-09T21:02:29.435Z,15.07
2023-04-09T21:05:00.039Z,15.45
2023-04-09T21:07:30.446Z,12.75
2023-04-09T21:09:57.451Z,17.40
2023-04-09T21:12:24.503Z,15.40
2023-04-09T21:14:51.537Z,14.55
2023-04-09T21:17:21.037Z,15.05
2023-04-09T21:19:49.419Z,14.45
2023-04-09T21:22:16.474Z,17.50
2023-04-09T21:24:43.479Z,13.65
2023-04-09T21:27:10.733Z,14.43
2023-04-09T21:29:37.756Z,16.42
2023-04-09T21:32:04.872Z,16.73
2023-04-09T21:34:31.900Z,15.20
2023-04-09T21:36:59.157Z,16.52
2023-04-09T21:39:26.308Z,14.60
2023-04-09T21:41:53.284Z,17.17
2023-04-09T21:44:20.699Z,15.80
2023-04-09T21:46:47.878Z,13.88
2023-04-09T21:49:14.888Z,16.08
2023-04-09T21:51:42.078Z,15.65
2023-04-09T21:54:09.880Z,15.07
2023-04-09T21:56:37.545Z,15.85
2023-04-09T21:59:05.516Z,18.10
2023-04-09T22:01:34.954Z,16.75
2023-04-09T22:06:29.764Z,18.50
2023-04-09T22:08:58.232Z,16.23
2023-04-09T22:11:27.881Z,21.83
2023-04-09T22:16:26.052Z,19.60
2023-04-09T22:18:54.206Z,19.13
2023-04-09T22:21:21.690Z,18.67
2023-04-09T22:23:48.743Z,24.52
2023-04-09T22:26:15.885Z,25.27
2023-04-09T22:28:42.912Z,21.40
2023-04-09T22:31:10.011Z,18.23
2023-04-09T22:33:37.126Z,20.13
2023-04-09T22:36:04.329Z,18.80
2023-04-09T22:38:31.436Z,22.80
2023-04-09T22:40:58.423Z,19.35
2023-04-09T22:43:25.536Z,20.00
2023-04-09T22:45:56.122Z,16.98
2023-04-09T22:48:23.664Z,18.10
2023-04-09T22:50:52.014Z,20.23
2023-04-09T22:53:19.560Z,16.83
2023-04-09T22:55:48.842Z,20.23
2023-04-09T22:58:15.906Z,18.33
2023-04-09T23:00:44.201Z,19.23
2023-04-09T23:03:11.360Z,19.25
2023-04-09T23:05:38.692Z,18.42
2023-04-09T23:08:07.753Z,19.27
2023-04-09T23:10:35.206Z,17.50
2023-04-09T23:13:02.579Z,17.88
2023-04-09T23:15:29.755Z,19.70
2023-04-09T23:17:57.065Z,16.63
2023-04-09T23:20:24.237Z,18.05
2023-04-09T23:22:51.241Z,17.25
2023-04-09T23:25:18.588Z,20.00
2023-04-09T23:27:46.715Z,32.88
2023-04-09T23:30:17.188Z,32.50
2023-04-09T23:32:45.360Z,36.25
2023-04-09T23:35:12.713Z,30.33
2023-04-09T23:37:41.263Z,26.55
2023-04-09T23:40:09.098Z,29.35
2023-04-09T23:42:36.149Z,21.90
2023-04-09T23:45:06.603Z,25.30
2023-04-09T23:47:35.693Z,20.98
2023-04-09T23:50:07.652Z,21.83
2023-04-09T23:52:35.952Z,18.02
2023-04-09T23:55:03.895Z,19.77
2023-04-09T23:57:30.999Z,19.20
2023-04-09T23:59:58.123Z,19.67
